Time;durP1;ratioP1;P1;durP2;ratioP2;P2;SDS_P1;SDS_P2;PMS_P1;PMS_P2;Temp;Humidity;BMP_temperature;BMP_pressure;BME280_temperature;BME280_humidity;BME280_pressure;Samples;Min_cycle;Max_cycle;Signal;HPM_P1;HPM_P2
2023/07/08 00:01:57;;;;;;;0.10;0.10;;;23.20;79.50;;;;;;5095124;28;20493;-76
2023/07/08 00:04:23;;;;;;;0.08;0.08;;;23.30;79.00;;;;;;5089713;28;20044;-76
2023/07/08 00:06:49;;;;;;;0.00;0.00;;;23.10;79.40;;;;;;5077952;28;20097;-77
2023/07/08 00:09:15;;;;;;;0.00;0.00;;;23.00;80.50;;;;;;5092785;28;20028;-77
2023/07/08 00:11:41;;;;;;;0.00;0.00;;;23.10;80.30;;;;;;5095272;28;20528;-76
2023/07/08 00:14:06;;;;;;;0.00;0.00;;;23.00;80.50;;;;;;5095384;28;20028;-76
2023/07/08 00:16:32;;;;;;;0.52;0.52;;;23.00;81.20;;;;;;5088395;28;20533;-76
2023/07/08 00:18:58;;;;;;;0.00;0.00;;;22.90;81.60;;;;;;5094590;28;20024;-76
2023/07/08 00:21:24;;;;;;;0.00;0.00;;;23.00;81.40;;;;;;5095192;28;20024;-77
2023/07/08 00:23:50;;;;;;;0.30;0.30;;;23.10;81.90;;;;;;5095480;28;20472;-76
2023/07/08 00:26:27;;;;;;;0.00;0.00;;;23.20;82.00;;;;;;5081156;28;20044;-77
2023/07/08 00:28:54;;;;;;;2.10;0.77;;;22.90;83.40;;;;;;5069628;28;20021;-77
2023/07/08 00:31:23;;;;;;;0.00;0.00;;;22.90;83.30;;;;;;5093144;28;20158;-77
2023/07/08 00:33:55;;;;;;;0.00;0.00;;;22.80;83.50;;;;;;5093134;28;20118;-77
2023/07/08 00:36:23;;;;;;;0.00;0.00;;;22.70;84.80;;;;;;5094410;28;20026;-77
2023/07/08 00:38:49;;;;;;;0.00;0.00;;;22.80;85.20;;;;;;5094738;28;20384;-77
2023/07/08 00:41:27;;;;;;;0.00;0.00;;;22.80;85.70;;;;;;5093833;28;20182;-74
2023/07/08 00:43:57;;;;;;;0.00;0.00;;;22.70;87.10;;;;;;5094862;28;20050;-74
2023/07/08 00:46:29;;;;;;;0.00;0.00;;;22.50;86.40;;;;;;5093486;28;20115;-74
2023/07/08 00:49:00;;;;;;;0.20;0.20;;;22.50;87.00;;;;;;5093679;28;20054;-73
2023/07/08 00:51:26;;;;;;;0.00;0.00;;;22.30;88.00;;;;;;5093688;28;20429;-77
2023/07/08 00:53:52;;;;;;;0.00;0.00;;;22.50;87.90;;;;;;5093306;28;20028;-77
2023/07/08 00:56:29;;;;;;;0.00;0.00;;;22.40;89.40;;;;;;5093876;28;20100;-77
2023/07/08 00:59:08;;;;;;;0.00;0.00;;;22.50;89.80;;;;;;5094902;28;20517;-77
2023/07/08 01:01:40;;;;;;;0.20;0.20;;;22.30;90.10;;;;;;5089979;28;20040;-76
2023/07/08 01:04:17;;;;;;;0.05;0.05;;;22.20;90.20;;;;;;5092460;28;20023;-77
2023/07/08 01:06:46;;;;;;;0.00;0.00;;;22.10;90.80;;;;;;5093765;28;20484;-77
2023/07/08 01:09:14;;;;;;;0.20;0.20;;;22.00;91.60;;;;;;5093388;28;20046;-76
2023/07/08 01:11:41;;;;;;;0.10;0.10;;;21.90;92.00;;;;;;5094583;28;20103;-76
2023/07/08 01:14:11;;;;;;;0.00;0.00;;;22.00;92.60;;;;;;5076933;28;20102;-76
2023/07/08 01:16:37;;;;;;;0.00;0.00;;;22.00;92.40;;;;;;5072866;28;20026;-77
2023/07/08 01:19:06;;;;;;;0.10;0.10;;;21.90;92.90;;;;;;5072426;28;20484;-74
2023/07/08 01:21:39;;;;;;;0.00;0.00;;;21.80;93.70;;;;;;5073665;28;20089;-74
2023/07/08 01:24:09;;;;;;;0.00;0.00;;;21.70;94.60;;;;;;5072146;28;20024;-74
2023/07/08 01:26:39;;;;;;;0.00;0.00;;;21.80;94.60;;;;;;5072647;28;20512;-74
2023/07/08 01:29:07;;;;;;;0.08;0.08;;;21.80;94.70;;;;;;5072707;28;20038;-74
2023/07/08 01:31:33;;;;;;;0.00;0.00;;;22.00;95.10;;;;;;5072900;28;20380;-73
2023/07/08 01:33:59;;;;;;;0.00;0.00;;;22.00;95.30;;;;;;5073454;28;20389;-76
2023/07/08 01:36:29;;;;;;;0.00;0.00;;;22.30;95.00;;;;;;5073691;28;20033;-76
2023/07/08 01:38:55;;;;;;;0.00;0.00;;;22.30;95.10;;;;;;5073629;28;20028;-77
2023/07/08 01:41:21;;;;;;;0.00;0.00;;;22.10;96.00;;;;;;5072802;28;20518;-77
2023/07/08 01:43:46;;;;;;;0.00;0.00;;;21.90;96.30;;;;;;5072238;28;20059;-77
2023/07/08 01:46:23;;;;;;;0.00;0.00;;;21.90;96.90;;;;;;5072276;28;20085;-76
2023/07/08 01:48:57;;;;;;;0.00;0.00;;;22.20;95.90;;;;;;5072384;28;20025;-77
2023/07/08 01:51:24;;;;;;;0.00;0.00;;;22.10;96.70;;;;;;5072133;28;20029;-77
2023/07/08 01:53:51;;;;;;;0.15;0.15;;;22.00;97.40;;;;;;5073487;28;20017;-77
2023/07/08 01:56:17;;;;;;;0.00;0.00;;;21.90;97.60;;;;;;5073414;28;20029;-77
2023/07/08 01:58:43;;;;;;;0.00;0.00;;;22.00;97.50;;;;;;5071765;28;20036;-77
2023/07/08 02:01:10;;;;;;;0.10;0.10;;;22.10;97.30;;;;;;5072358;28;20422;-77
2023/07/08 02:03:36;;;;;;;0.00;0.00;;;22.00;96.70;;;;;;5071552;28;20055;-76
2023/07/08 02:06:03;;;;;;;0.00;0.00;;;21.90;97.50;;;;;;5073213;28;20036;-76
2023/07/08 02:08:29;;;;;;;0.00;0.00;;;21.80;98.20;;;;;;5073077;28;20476;-77
2023/07/08 02:10:57;;;;;;;0.00;0.00;;;21.70;98.60;;;;;;5072101;28;20068;-74
2023/07/08 02:13:24;;;;;;;0.00;0.00;;;21.60;99.10;;;;;;5071061;28;20021;-77
2023/07/08 02:15:51;;;;;;;0.00;0.00;;;21.50;99.90;;;;;;5073041;28;20040;-77
2023/07/08 02:18:20;;;;;;;0.10;0.10;;;21.30;99.90;;;;;;5072590;28;20024;-77
2023/07/08 02:20:46;;;;;;;0.00;0.00;;;21.30;99.90;;;;;;5073203;28;20119;-76
2023/07/08 02:23:14;;;;;;;0.00;0.00;;;21.20;99.90;;;;;;5072492;28;20100;-77
2023/07/08 02:25:39;;;;;;;0.00;0.00;;;21.20;99.90;;;;;;5071357;28;20044;-77
2023/07/08 02:28:05;;;;;;;0.00;0.00;;;21.40;99.90;;;;;;5072598;28;20031;-76
2023/07/08 02:30:31;;;;;;;0.00;0.00;;;21.60;99.90;;;;;;5072297;28;20028;-77
2023/07/08 02:32:58;;;;;;;0.00;0.00;;;21.60;99.50;;;;;;5054634;28;20031;-76
2023/07/08 02:35:29;;;;;;;0.00;0.00;;;21.50;99.90;;;;;;5072860;28;20029;-76
2023/07/08 02:37:57;;;;;;;0.00;0.00;;;21.30;99.90;;;;;;5072836;28;20040;-77
2023/07/08 02:40:24;;;;;;;0.00;0.00;;;21.30;99.90;;;;;;5070612;28;20020;-76
2023/07/08 02:42:50;;;;;;;0.20;0.20;;;21.20;99.90;;;;;;5072920;28;20035;-76
2023/07/08 02:45:18;;;;;;;1.55;1.45;;;20.60;99.90;;;;;;5072079;28;20041;-76
2023/07/08 02:47:44;;;;;;;0.00;0.00;;;20.30;99.90;;;;;;5071322;28;20083;-77
2023/07/08 02:50:11;;;;;;;0.00;0.00;;;20.00;99.90;;;;;;5071882;28;20021;-76
2023/07/08 02:52:36;;;;;;;0.00;0.00;;;20.40;99.90;;;;;;5071706;28;20741;-77
2023/07/08 02:55:03;;;;;;;0.00;0.00;;;20.50;99.90;;;;;;5071363;28;20025;-76
2023/07/08 02:57:29;;;;;;;0.00;0.00;;;20.60;99.90;;;;;;5071029;28;20025;-77
2023/07/08 02:59:54;;;;;;;0.00;0.00;;;20.40;99.90;;;;;;5071622;28;20161;-76
2023/07/08 03:02:22;;;;;;;0.00;0.00;;;20.40;99.90;;;;;;5071360;28;20082;-75
2023/07/08 03:04:49;;;;;;;0.00;0.00;;;20.50;99.90;;;;;;5072588;28;20376;-76
2023/07/08 03:07:17;;;;;;;0.00;0.00;;;20.40;99.90;;;;;;5072080;28;20086;-76
2023/07/08 03:09:43;;;;;;;0.20;0.20;;;20.10;99.90;;;;;;5071579;28;20021;-76
2023/07/08 03:12:10;;;;;;;0.00;0.00;;;19.90;99.90;;;;;;5072755;28;20490;-76
2023/07/08 03:14:36;;;;;;;0.00;0.00;;;19.80;99.90;;;;;;5070627;28;20024;-76
2023/07/08 03:17:03;;;;;;;0.00;0.00;;;19.90;99.90;;;;;;5070251;28;20021;-76
2023/07/08 03:19:29;;;;;;;0.00;0.00;;;20.20;99.90;;;;;;5072270;28;20032;-76
2023/07/08 03:21:55;;;;;;;0.00;0.00;;;20.20;99.90;;;;;;5071351;28;20112;-76
2023/07/08 03:24:21;;;;;;;0.00;0.00;;;20.10;99.90;;;;;;5071021;28;20064;-76
2023/07/08 03:26:48;;;;;;;0.00;0.00;;;20.10;99.90;;;;;;5070928;28;20574;-76
2023/07/08 03:29:16;;;;;;;0.00;0.00;;;20.30;99.90;;;;;;5074087;28;20384;-76
2023/07/08 03:31:45;;;;;;;0.00;0.00;;;20.30;99.90;;;;;;5058036;28;20387;-77
2023/07/08 03:34:12;;;;;;;0.00;0.00;;;20.10;99.90;;;;;;5074918;28;20041;-77
2023/07/08 03:36:50;;;;;;;0.00;0.00;;;20.00;99.90;;;;;;5073977;28;20024;-77
2023/07/08 03:39:25;;;;;;;0.00;0.00;;;19.90;99.90;;;;;;5074199;28;20050;-77
2023/07/08 03:41:52;;;;;;;0.00;0.00;;;20.00;99.90;;;;;;5075352;28;20054;-76
2023/07/08 03:44:19;;;;;;;0.00;0.00;;;19.90;99.90;;;;;;5073901;28;20116;-76
2023/07/08 03:46:50;;;;;;;0.00;0.00;;;20.00;99.90;;;;;;5075662;28;20191;-75
2023/07/08 03:49:23;;;;;;;0.00;0.00;;;20.00;99.90;;;;;;5074001;28;20036;-77
2023/07/08 03:51:53;;;;;;;0.00;0.00;;;20.10;99.90;;;;;;5074417;28;20078;-76
2023/07/08 03:54:21;;;;;;;0.75;0.75;;;20.00;99.90;;;;;;5074877;28;20468;-76
2023/07/08 03:56:47;;;;;;;0.00;0.00;;;20.00;99.90;;;;;;5074678;28;20380;-77
2023/07/08 03:59:13;;;;;;;0.08;0.08;;;19.90;99.90;;;;;;5073827;28;20502;-76
2023/07/08 04:01:40;;;;;;;0.10;0.10;;;19.60;99.90;;;;;;5072792;28;20056;-75
2023/07/08 04:04:12;;;;;;;0.00;0.00;;;19.60;99.90;;;;;;5073228;28;20025;-76
2023/07/08 04:06:38;;;;;;;0.00;0.00;;;19.40;99.90;;;;;;5075338;28;20036;-76
2023/07/08 04:09:04;;;;;;;0.43;0.43;;;19.60;99.90;;;;;;5074119;28;20119;-76
2023/07/08 04:11:30;;;;;;;0.10;0.10;;;19.80;99.90;;;;;;5074407;28;20468;-76
2023/07/08 04:13:55;;;;;;;0.00;0.00;;;20.10;99.90;;;;;;5074892;28;20036;-76
2023/07/08 04:16:31;;;;;;;0.00;0.00;;;20.00;99.90;;;;;;5075144;28;20024;-76
2023/07/08 04:18:57;;;;;;;0.70;0.70;;;20.10;99.90;;;;;;5073698;28;20095;-76
2023/07/08 04:21:27;;;;;;;0.00;0.00;;;20.10;99.90;;;;;;5074736;28;20058;-77
2023/07/08 04:23:53;;;;;;;0.45;0.38;;;20.20;99.90;;;;;;5074725;28;20023;-76
2023/07/08 04:26:18;;;;;;;0.00;0.00;;;20.10;99.90;;;;;;5075188;28;20464;-76
2023/07/08 04:28:44;;;;;;;0.00;0.00;;;20.00;99.90;;;;;;5074217;28;20112;-76
2023/07/08 04:31:10;;;;;;;0.00;0.00;;;19.90;99.90;;;;;;5074108;28;20037;-76
2023/07/08 04:33:36;;;;;;;0.00;0.00;;;19.80;99.90;;;;;;5074980;28;20016;-76
2023/07/08 04:36:02;;;;;;;0.00;0.00;;;19.90;99.90;;;;;;5073808;28;20530;-76
2023/07/08 04:38:28;;;;;;;0.00;0.00;;;20.20;99.90;;;;;;5074480;28;20103;-76
2023/07/08 04:40:54;;;;;;;0.00;0.00;;;20.30;99.90;;;;;;5074326;28;20436;-75
2023/07/08 04:43:21;;;;;;;0.00;0.00;;;20.30;99.90;;;;;;5073197;28;20020;-77
2023/07/08 04:45:52;;;;;;;0.00;0.00;;;20.10;99.90;;;;;;5073846;28;20033;-77
2023/07/08 04:48:21;;;;;;;0.00;0.00;;;20.00;99.90;;;;;;5073305;28;20380;-77
2023/07/08 04:50:49;;;;;;;0.00;0.00;;;20.10;99.90;;;;;;5074667;28;20032;-76
2023/07/08 04:53:15;;;;;;;0.00;0.00;;;20.20;99.90;;;;;;5074754;28;20533;-76
2023/07/08 04:55:47;;;;;;;0.00;0.00;;;20.40;99.90;;;;;;5073341;28;20020;-76
2023/07/08 04:58:13;;;;;;;0.00;0.00;;;20.60;99.90;;;;;;5073255;28;20066;-76
2023/07/08 05:00:38;;;;;;;0.00;0.00;;;20.90;99.90;;;;;;5074348;28;20432;-76
2023/07/08 05:03:04;;;;;;;0.73;0.73;;;20.90;99.90;;;;;;5074602;28;20035;-76
2023/07/08 05:05:30;;;;;;;0.00;0.00;;;21.10;99.90;;;;;;5073589;28;20111;-76
2023/07/08 05:07:56;;;;;;;0.00;0.00;;;21.10;99.90;;;;;;5073384;28;20059;-76
2023/07/08 05:10:22;;;;;;;0.00;0.00;;;21.00;99.90;;;;;;5074346;28;20025;-76
2023/07/08 05:12:48;;;;;;;0.00;0.00;;;20.90;99.90;;;;;;5073293;28;20028;-76
2023/07/08 05:15:15;;;;;;;0.00;0.00;;;20.80;99.90;;;;;;5072747;28;20045;-74
2023/07/08 05:17:42;;;;;;;0.00;0.00;;;20.90;99.90;;;;;;5074126;28;20119;-74
2023/07/08 05:20:11;;;;;;;0.00;0.00;;;20.80;99.90;;;;;;5073047;28;20020;-74
2023/07/08 05:22:36;;;;;;;0.00;0.00;;;21.10;99.90;;;;;;5071957;28;20020;-74
2023/07/08 05:25:03;;;;;;;0.00;0.00;;;21.50;99.90;;;;;;5073527;28;20365;-76
2023/07/08 05:27:30;;;;;;;0.00;0.00;;;21.60;99.90;;;;;;5073936;28;20024;-76
2023/07/08 05:29:56;;;;;;;0.00;0.00;;;21.60;99.90;;;;;;5072840;28;20032;-76
2023/07/08 05:32:22;;;;;;;0.03;0.03;;;21.60;99.90;;;;;;5072868;28;20392;-77
2023/07/08 05:34:48;;;;;;;0.00;0.00;;;21.60;99.90;;;;;;5073930;28;20379;-77
2023/07/08 05:37:14;;;;;;;0.52;0.52;;;21.50;99.90;;;;;;5073552;28;20058;-77
2023/07/08 05:39:40;;;;;;;0.00;0.00;;;21.50;99.90;;;;;;5072359;28;20384;-74
2023/07/08 05:42:06;;;;;;;2.08;0.65;;;21.30;99.90;;;;;;5071170;28;20037;-76
2023/07/08 05:44:32;;;;;;;0.00;0.00;;;21.30;99.90;;;;;;5071158;28;20041;-77
2023/07/08 05:46:58;;;;;;;0.45;0.45;;;21.70;99.90;;;;;;5073853;28;20044;-77
2023/07/08 05:49:23;;;;;;;0.00;0.00;;;21.80;99.90;;;;;;5081091;28;20028;-77
2023/07/08 05:51:49;;;;;;;0.00;0.00;;;21.90;99.90;;;;;;5082406;28;20016;-78
2023/07/08 05:54:15;;;;;;;0.00;0.00;;;21.90;99.90;;;;;;5073538;28;20042;-76
2023/07/08 05:56:41;;;;;;;0.10;0.10;;;21.80;99.90;;;;;;5075490;28;20032;-76
2023/07/08 05:59:07;;;;;;;0.00;0.00;;;21.80;99.90;;;;;;5072025;28;20020;-76
2023/07/08 06:01:33;;;;;;;0.00;0.00;;;21.80;99.90;;;;;;5081767;28;20033;-77
2023/07/08 06:03:59;;;;;;;0.00;0.00;;;22.00;99.90;;;;;;5074335;28;20054;-77
2023/07/08 06:06:28;;;;;;;0.63;0.63;;;22.10;99.90;;;;;;5072199;28;20503;-76
2023/07/08 06:08:54;;;;;;;0.00;0.00;;;22.00;99.90;;;;;;5077485;28;20063;-76
2023/07/08 06:11:21;;;;;;;0.00;0.00;;;22.20;99.90;;;;;;5072921;28;20032;-77
2023/07/08 06:13:48;;;;;;;0.00;0.00;;;22.30;99.90;;;;;;5071994;28;20019;-77
2023/07/08 06:16:14;;;;;;;0.10;0.10;;;22.40;99.90;;;;;;5087121;28;20071;-76
2023/07/08 06:18:40;;;;;;;0.00;0.00;;;22.40;99.90;;;;;;5071649;28;20032;-76
2023/07/08 06:21:06;;;;;;;0.00;0.00;;;22.40;99.90;;;;;;5087017;28;20029;-76
2023/07/08 06:23:32;;;;;;;0.00;0.00;;;22.80;99.90;;;;;;5088204;28;20050;-76
2023/07/08 06:25:58;;;;;;;0.00;0.00;;;22.80;99.90;;;;;;5085712;28;20032;-77
2023/07/08 06:28:23;;;;;;;1.23;1.20;;;22.70;99.90;;;;;;5084949;28;20405;-74
2023/07/08 06:30:49;;;;;;;0.00;0.00;;;23.00;99.90;;;;;;5073561;28;20037;-75
2023/07/08 06:33:15;;;;;;;0.20;0.20;;;23.20;99.90;;;;;;5072566;28;20028;-76
2023/07/08 06:35:42;;;;;;;1.40;1.30;;;23.20;99.90;;;;;;5083356;28;20074;-75
2023/07/08 06:38:07;;;;;;;0.00;0.00;;;23.40;99.90;;;;;;5075405;28;20024;-76
2023/07/08 06:40:34;;;;;;;0.00;0.00;;;23.20;99.90;;;;;;5073006;28;20112;-75
2023/07/08 06:43:00;;;;;;;0.08;0.08;;;23.40;99.90;;;;;;5073956;28;20021;-75
2023/07/08 06:45:47;;;;;;;0.75;0.75;;;23.70;99.90;;;;;;5077574;28;20075;-74
2023/07/08 06:48:13;;;;;;;0.00;0.00;;;23.70;99.90;;;;;;5076371;28;20063;-75
2023/07/08 06:50:43;;;;;;;0.05;0.05;;;23.80;99.90;;;;;;5078036;28;20016;-75
2023/07/08 06:53:09;;;;;;;0.00;0.00;;;24.00;99.90;;;;;;5075237;28;20025;-75
2023/07/08 06:55:35;;;;;;;0.00;0.00;;;24.10;99.90;;;;;;5073957;28;20083;-75
2023/07/08 06:58:00;;;;;;;0.00;0.00;;;24.30;99.80;;;;;;5069841;28;20017;-75
2023/07/08 07:00:26;;;;;;;1.20;0.85;;;24.40;99.30;;;;;;5066896;28;20033;-75
2023/07/08 07:02:52;;;;;;;0.70;0.65;;;24.60;98.70;;;;;;5069116;28;20032;-75
2023/07/08 07:05:18;;;;;;;1.08;0.32;;;24.60;98.70;;;;;;5081419;28;20099;-76
2023/07/08 07:07:44;;;;;;;0.00;0.00;;;24.50;98.90;;;;;;5083903;28;20117;-75
2023/07/08 07:10:09;;;;;;;0.00;0.00;;;24.50;99.50;;;;;;5079181;28;20040;-73
2023/07/08 07:12:35;;;;;;;1.20;0.68;;;24.80;98.30;;;;;;5079576;28;20032;-73
2023/07/08 07:15:01;;;;;;;0.38;0.38;;;24.80;97.60;;;;;;5073954;28;20024;-73
2023/07/08 07:17:27;;;;;;;0.30;0.30;;;24.60;98.30;;;;;;5079083;28;20048;-72
2023/07/08 07:19:56;;;;;;;0.35;0.35;;;24.80;98.60;;;;;;5078568;28;20031;-73
2023/07/08 07:22:21;;;;;;;0.00;0.00;;;24.90;98.30;;;;;;5084613;28;20020;-73
2023/07/08 07:24:48;;;;;;;0.00;0.00;;;25.10;98.40;;;;;;5077669;28;20086;-73
2023/07/08 07:27:13;;;;;;;0.00;0.00;;;25.20;98.30;;;;;;5088018;28;20407;-73
2023/07/08 07:29:42;;;;;;;0.85;0.85;;;25.30;97.70;;;;;;5090039;28;20024;-71
2023/07/08 07:32:09;;;;;;;0.00;0.00;;;25.60;97.20;;;;;;5069121;28;20395;-76
2023/07/08 07:34:35;;;;;;;0.03;0.03;;;25.90;96.50;;;;;;5087871;28;20027;-75
2023/07/08 07:37:01;;;;;;;0.00;0.00;;;26.00;96.50;;;;;;5075424;28;20027;-75
2023/07/08 07:39:28;;;;;;;4.10;0.60;;;26.10;97.10;;;;;;5089594;28;20100;-74
2023/07/08 07:41:54;;;;;;;0.00;0.00;;;26.20;96.40;;;;;;5077529;28;20028;-75
2023/07/08 07:44:20;;;;;;;0.00;0.00;;;26.30;96.40;;;;;;5077188;28;20117;-75
2023/07/08 07:46:46;;;;;;;0.00;0.00;;;26.40;96.60;;;;;;5085753;28;20595;-75
2023/07/08 07:49:13;;;;;;;0.13;0.13;;;26.30;96.50;;;;;;5068375;28;20393;-75
2023/07/08 07:51:39;;;;;;;5.00;0.65;;;26.20;96.70;;;;;;5075629;28;20067;-75
2023/07/08 07:54:05;;;;;;;0.10;0.10;;;26.30;96.50;;;;;;5071219;28;20048;-73
2023/07/08 07:56:31;;;;;;;0.40;0.40;;;26.50;95.60;;;;;;5064651;28;20420;-75
2023/07/08 07:58:57;;;;;;;0.00;0.00;;;26.70;95.10;;;;;;5079507;28;20426;-74
2023/07/08 08:01:23;;;;;;;0.43;0.43;;;26.60;95.30;;;;;;5072157;28;20082;-75
2023/07/08 08:03:52;;;;;;;0.35;0.32;;;26.40;95.20;;;;;;5078231;28;20032;-75
2023/07/08 08:06:18;;;;;;;0.00;0.00;;;26.50;95.70;;;;;;5081243;28;20086;-76
2023/07/08 08:08:45;;;;;;;0.00;0.00;;;26.70;95.80;;;;;;5075519;28;20033;-76
2023/07/08 08:11:11;;;;;;;0.00;0.00;;;27.10;95.40;;;;;;5070219;28;20040;-75
2023/07/08 08:13:37;;;;;;;1.73;1.05;;;27.20;95.40;;;;;;5070943;28;20025;-76
2023/07/08 08:16:04;;;;;;;0.00;0.00;;;27.50;95.30;;;;;;5082382;28;20033;-72
2023/07/08 08:18:30;;;;;;;0.30;0.30;;;27.50;95.10;;;;;;5075191;28;20028;-72
2023/07/08 08:20:56;;;;;;;0.60;0.60;;;27.50;94.40;;;;;;5074635;28;20036;-75
2023/07/08 08:23:22;;;;;;;2.28;1.92;;;27.60;94.80;;;;;;5075688;28;20044;-75
2023/07/08 08:25:50;;;;;;;0.13;0.13;;;27.60;94.60;;;;;;5074211;28;20510;-75
2023/07/08 08:28:16;;;;;;;0.95;0.50;;;27.70;94.20;;;;;;5076722;28;20100;-75
2023/07/08 08:30:46;;;;;;;0.65;0.40;;;27.80;94.40;;;;;;5072724;28;20131;-75
2023/07/08 08:33:12;;;;;;;0.95;0.95;;;28.10;94.30;;;;;;5074510;28;20078;-75
2023/07/08 08:35:37;;;;;;;0.85;0.85;;;28.40;94.30;;;;;;5073287;28;20029;-75
2023/07/08 08:38:04;;;;;;;0.00;0.00;;;28.50;93.50;;;;;;5074807;28;20457;-75
2023/07/08 08:40:31;;;;;;;0.00;0.00;;;28.80;93.30;;;;;;5073481;28;20051;-75
2023/07/08 08:43:05;;;;;;;0.00;0.00;;;29.20;93.30;;;;;;5074872;28;20525;-74
2023/07/08 08:45:40;;;;;;;3.03;1.38;;;29.20;91.40;;;;;;5073775;28;20465;-75
2023/07/08 08:48:10;;;;;;;0.10;0.10;;;28.90;92.70;;;;;;5076068;28;20060;-75
2023/07/08 08:50:49;;;;;;;2.33;0.40;;;29.00;93.60;;;;;;5077077;28;20031;-75
2023/07/08 08:53:16;;;;;;;0.00;0.00;;;29.10;93.90;;;;;;5075649;28;20028;-75
2023/07/08 08:55:43;;;;;;;4.95;2.20;;;29.40;93.30;;;;;;5081061;28;20099;-76
2023/07/08 08:58:36;;;;;;;0.00;0.00;;;29.60;93.20;;;;;;5076186;28;20058;-72
2023/07/08 09:01:07;;;;;;;0.00;0.00;;;30.00;92.60;;;;;;5077548;28;20032;-73
2023/07/08 09:03:54;;;;;;;17.30;1.88;;;30.20;91.60;;;;;;5078845;28;20091;-72
2023/07/08 09:06:32;;;;;;;0.00;0.00;;;30.10;91.00;;;;;;5072790;28;20469;-73
2023/07/08 09:09:05;;;;;;;0.73;0.47;;;30.20;90.50;;;;;;5075902;28;20074;-72
2023/07/08 09:11:40;;;;;;;1.17;1.10;;;30.30;91.20;;;;;;5073778;28;20033;-73
2023/07/08 09:14:22;;;;;;;0.77;0.75;;;30.50;90.40;;;;;;5073613;28;20031;-73
2023/07/08 09:17:16;;;;;;;0.32;0.32;;;30.60;90.20;;;;;;5079087;28;20027;-73
2023/07/08 09:20:01;;;;;;;0.47;0.17;;;30.40;88.80;;;;;;5074451;28;20427;-73
2023/07/08 09:22:39;;;;;;;0.03;0.03;;;30.30;89.40;;;;;;5073749;28;20035;-73
2023/07/08 09:25:12;;;;;;;0.00;0.00;;;30.30;89.40;;;;;;5074356;28;20033;-73
2023/07/08 09:27:38;;;;;;;0.00;0.00;;;30.30;88.00;;;;;;5074217;28;20563;-73
2023/07/08 09:30:05;;;;;;;0.47;0.47;;;30.40;90.30;;;;;;5073700;28;20056;-73
2023/07/08 09:32:33;;;;;;;0.22;0.22;;;30.70;88.40;;;;;;5073602;28;20025;-73
2023/07/08 09:35:06;;;;;;;1.52;0.52;;;30.50;86.10;;;;;;5073610;28;20060;-73
2023/07/08 09:37:38;;;;;;;2.97;1.42;;;30.30;87.20;;;;;;5073625;28;20033;-73
2023/07/08 09:40:29;;;;;;;3.65;1.42;;;30.40;87.60;;;;;;5072334;28;20027;-72
2023/07/08 09:43:01;;;;;;;4.43;1.30;;;30.50;87.80;;;;;;5071905;28;20558;-73
2023/07/08 09:45:29;;;;;;;0.30;0.30;;;30.50;86.10;;;;;;5071658;28;20488;-72
2023/07/08 09:48:01;;;;;;;2.08;1.65;;;31.00;85.00;;;;;;5079695;28;20025;-73
2023/07/08 09:50:31;;;;;;;0.32;0.28;;;31.10;84.60;;;;;;5073154;28;20151;-73
2023/07/08 09:53:00;;;;;;;0.00;0.00;;;31.40;84.70;;;;;;5075501;28;20033;-73
2023/07/08 09:55:25;;;;;;;0.10;0.10;;;31.70;84.10;;;;;;5073353;28;20397;-73
2023/07/08 09:57:53;;;;;;;0.10;0.10;;;31.70;83.10;;;;;;5073331;28;20013;-76
2023/07/08 10:00:46;;;;;;;0.85;0.50;;;31.40;82.70;;;;;;5072505;28;20063;-76
2023/07/08 10:03:25;;;;;;;1.38;0.57;;;31.70;84.60;;;;;;5064845;28;20025;-75
2023/07/08 10:05:57;;;;;;;1.17;0.40;;;32.00;84.10;;;;;;5070299;28;20032;-68
2023/07/08 10:08:24;;;;;;;0.52;0.52;;;32.30;82.00;;;;;;5072690;28;20041;-71
2023/07/08 10:11:12;;;;;;;1.77;0.52;;;32.20;82.50;;;;;;5075116;28;20043;-72
2023/07/08 10:13:42;;;;;;;0.52;0.47;;;32.00;80.90;;;;;;5072858;28;20156;-75
2023/07/08 10:16:25;;;;;;;1.02;1.02;;;32.50;82.00;;;;;;5076309;28;20048;-72
2023/07/08 10:18:52;;;;;;;0.73;0.57;;;32.90;81.80;;;;;;5074058;28;20020;-72
2023/07/08 10:21:40;;;;;;;0.00;0.00;;;33.10;80.00;;;;;;5087639;28;20483;-72
2023/07/08 10:24:19;;;;;;;0.00;0.00;;;33.30;79.50;;;;;;5077399;28;20060;-72
2023/07/08 10:26:49;;;;;;;0.95;0.80;;;33.70;79.70;;;;;;5074621;28;20064;-71
2023/07/08 10:29:34;;;;;;;0.00;0.00;;;33.70;79.60;;;;;;5073853;28;20039;-72
2023/07/08 10:32:05;;;;;;;0.45;0.45;;;33.70;80.70;;;;;;5082716;28;20040;-72
2023/07/08 10:35:13;;;;;;;0.40;0.40;;;33.50;78.20;;;;;;5082737;28;20031;-71
2023/07/08 10:37:47;;;;;;;0.00;0.00;;;33.60;79.40;;;;;;5072181;28;20056;-71
2023/07/08 10:40:16;;;;;;;0.38;0.38;;;34.00;78.80;;;;;;5072788;28;20021;-71
2023/07/08 10:43:08;;;;;;;0.00;0.00;;;34.30;78.10;;;;;;5065340;28;20106;-71
2023/07/08 10:46:03;;;;;;;0.05;0.05;;;34.20;75.50;;;;;;5079466;28;20111;-70
2023/07/08 10:48:33;;;;;;;0.10;0.10;;;34.30;76.20;;;;;;5079060;28;20040;-72
2023/07/08 10:51:17;;;;;;;1.40;0.47;;;34.50;74.40;;;;;;5071540;28;20384;-69
2023/07/08 10:54:16;;;;;;;0.10;0.10;;;34.50;73.70;;;;;;5072228;28;20032;-70
2023/07/08 10:56:54;;;;;;;0.85;0.77;;;34.40;72.10;;;;;;5068316;28;20028;-71
2023/07/08 10:59:26;;;;;;;0.03;0.03;;;34.50;73.60;;;;;;5074865;28;20059;-72
2023/07/08 11:01:55;;;;;;;1.25;1.13;;;34.10;71.30;;;;;;5071299;28;20024;-71
2023/07/08 11:04:55;;;;;;;0.20;0.20;;;34.50;70.70;;;;;;5073155;28;20027;-70
2023/07/08 11:07:55;;;;;;;0.10;0.10;;;34.60;69.40;;;;;;5079359;28;20052;-73
2023/07/08 11:10:29;;;;;;;2.20;0.63;;;34.80;69.10;;;;;;5078828;28;20024;-73
2023/07/08 11:12:55;;;;;;;0.10;0.10;;;35.30;68.60;;;;;;5072356;28;20024;-73
2023/07/08 11:15:30;;;;;;;0.00;0.00;;;35.40;67.20;;;;;;5079509;28;20031;-73
2023/07/08 11:18:12;;;;;;;0.30;0.30;;;35.60;67.00;;;;;;5081136;28;20029;-72
2023/07/08 11:20:53;;;;;;;0.00;0.00;;;35.70;68.20;;;;;;5071021;28;20029;-73
2023/07/08 11:23:40;;;;;;;0.90;0.32;;;35.80;66.50;;;;;;5073868;28;20329;-73
2023/07/08 11:26:18;;;;;;;1.55;0.75;;;35.40;66.10;;;;;;5071239;28;20040;-72
2023/07/08 11:28:45;;;;;;;0.00;0.00;;;35.50;67.00;;;;;;5072419;28;20016;-71
2023/07/08 11:31:13;;;;;;;0.00;0.00;;;35.70;67.20;;;;;;5080089;28;20042;-72
2023/07/08 11:33:40;;;;;;;0.10;0.10;;;35.70;64.80;;;;;;5076152;28;20483;-72
2023/07/08 11:36:06;;;;;;;0.32;0.15;;;35.90;66.40;;;;;;5071857;28;20047;-71
2023/07/08 11:38:34;;;;;;;0.95;0.20;;;36.30;65.00;;;;;;5074717;28;20158;-73
2023/07/08 11:41:11;;;;;;;0.57;0.50;;;36.60;64.90;;;;;;5077035;28;20039;-73
2023/07/08 11:43:58;;;;;;;0.22;0.22;;;36.40;65.40;;;;;;5073401;28;20029;-72
2023/07/08 11:46:31;;;;;;;2.17;1.27;;;36.50;64.60;;;;;;5068483;28;20131;-73
2023/07/08 11:49:04;;;;;;;1.67;0.57;;;36.40;65.30;;;;;;5073991;28;20112;-72
2023/07/08 11:51:46;;;;;;;0.25;0.17;;;36.30;64.80;;;;;;5074472;28;20083;-72
2023/07/08 11:54:27;;;;;;;0.00;0.00;;;36.10;64.10;;;;;;5081732;28;20028;-73
2023/07/08 11:57:26;;;;;;;1.98;1.02;;;36.30;65.10;;;;;;5087122;28;20028;-73
2023/07/08 12:00:26;;;;;;;2.63;1.73;;;36.50;63.90;;;;;;5073023;28;20025;-72
2023/07/08 12:02:58;;;;;;;0.30;0.30;;;36.80;64.40;;;;;;5075442;28;20077;-73
2023/07/08 12:05:35;;;;;;;0.10;0.10;;;36.40;63.20;;;;;;5084183;28;20104;-74
2023/07/08 12:08:10;;;;;;;0.38;0.38;;;36.30;64.30;;;;;;5075563;28;20025;-73
2023/07/08 12:10:49;;;;;;;0.85;0.82;;;36.60;64.00;;;;;;5075227;28;20032;-72
2023/07/08 12:13:18;;;;;;;0.75;0.75;;;37.10;63.90;;;;;;5074888;28;20040;-73
2023/07/08 12:15:44;;;;;;;0.35;0.35;;;37.10;63.30;;;;;;5076181;28;20029;-73
2023/07/08 12:18:16;;;;;;;3.00;0.93;;;37.10;64.30;;;;;;5084384;28;20435;-72
2023/07/08 12:20:49;;;;;;;0.10;0.10;;;37.60;61.40;;;;;;5067952;28;20036;-73
2023/07/08 12:23:22;;;;;;;0.38;0.38;;;37.30;61.50;;;;;;5070198;28;20024;-70
2023/07/08 12:25:48;;;;;;;3.17;1.65;;;38.10;62.10;;;;;;5071383;28;20036;-69
2023/07/08 12:28:14;;;;;;;0.20;0.20;;;38.10;61.30;;;;;;5072500;28;20385;-71
2023/07/08 12:30:42;;;;;;;1.70;1.30;;;38.00;61.50;;;;;;5090644;28;20016;-69
2023/07/08 12:33:39;;;;;;;0.55;0.50;;;37.30;60.40;;;;;;5088350;28;20016;-71
2023/07/08 12:36:05;;;;;;;0.00;0.00;;;37.40;60.10;;;;;;5075859;28;20056;-70
2023/07/08 12:38:40;;;;;;;0.10;0.10;;;36.80;61.50;;;;;;5077706;28;20023;-70
2023/07/08 12:41:16;;;;;;;2.75;0.82;;;36.90;61.60;;;;;;5081516;28;20066;-71
2023/07/08 12:43:43;;;;;;;0.32;0.32;;;36.40;61.50;;;;;;5086837;28;20468;-72
2023/07/08 12:46:13;;;;;;;3.55;1.10;;;36.30;62.10;;;;;;5080995;28;20392;-72
2023/07/08 12:48:40;;;;;;;1.92;1.15;;;36.80;61.00;;;;;;5072099;28;20032;-71
2023/07/08 12:51:12;;;;;;;1.63;0.68;;;36.10;61.00;;;;;;5073532;28;20031;-70
2023/07/08 12:53:37;;;;;;;1.13;0.73;;;36.10;60.50;;;;;;5085254;28;20107;-73
2023/07/08 12:56:04;;;;;;;1.92;1.73;;;36.50;61.50;;;;;;5082504;28;20120;-71
2023/07/08 12:58:34;;;;;;;1.67;0.38;;;36.20;62.20;;;;;;5083272;28;20077;-73
2023/07/08 13:01:03;;;;;;;0.17;0.17;;;35.50;63.60;;;;;;5075737;28;20016;-69
2023/07/08 13:03:34;;;;;;;1.05;0.38;;;35.00;63.40;;;;;;5084369;28;20028;-71